Brent, Florida
Current Conditions -  °F | °C
As of 11:53 AM on Monday 26 Jan 2015 (Local Time) from KPNS Reporting Station
Few Clouds Few Clouds  
Wind Chill: 56°   Ceiling: Unl
Heat Index: 56°   Visibility: 10mi
Dew Point: 35°   Wind: 14mph
Humidity: 45%   Direction: 330°NNW
Pressure: 30.01"   Gusts: 23mph
Location:  30.46°N, 87.24°W
Report Text: KPNS 261753Z 33012G20KT 10SM FEW035 13/02 A3001 RMK AO2 SLP163 T01330017 10139 20067 58006
Loading
Personal Weather Stations






























Interactive Weather Map New forecast layout! Learn more

10-Day Weather Forecast

Advertisements
Track Severe Weather on mobile